createdAt,value
2018-12-16T00:00:03.238Z,22.00
2018-12-16T00:02:38.931Z,23.20
2018-12-16T00:05:09.445Z,21.23
2018-12-16T00:07:40.512Z,21.33
2018-12-16T00:10:10.506Z,24.60
2018-12-16T00:12:43.101Z,19.10
2018-12-16T00:15:14.505Z,22.60
2018-12-16T00:17:46.802Z,19.03
2018-12-16T00:20:19.661Z,21.48
2018-12-16T00:22:50.060Z,20.57
2018-12-16T00:25:20.717Z,22.82
2018-12-16T00:27:51.024Z,25.47
2018-12-16T00:30:22.283Z,22.87
2018-12-16T00:32:52.869Z,24.93
2018-12-16T00:35:23.491Z,22.00
2018-12-16T00:37:55.759Z,24.20
2018-12-16T00:40:25.577Z,22.60
2018-12-16T00:42:58.294Z,23.90
2018-12-16T00:45:32.669Z,22.77
2018-12-16T00:50:49.102Z,21.57
2018-12-16T00:53:20.220Z,18.93
2018-12-16T00:55:52.692Z,21.40
2018-12-16T00:58:24.165Z,24.40
2018-12-16T01:00:55.666Z,21.75
2018-12-16T01:03:26.100Z,20.72
2018-12-16T01:05:57.224Z,23.67
2018-12-16T01:08:29.482Z,25.17
2018-12-16T01:10:59.872Z,27.90
2018-12-16T01:13:29.762Z,20.77
2018-12-16T01:16:02.218Z,18.77
2018-12-16T01:21:26.838Z,25.77
2018-12-16T01:23:59.344Z,27.40
2018-12-16T01:26:28.931Z,21.13
2018-12-16T01:29:00.238Z,20.85
2018-12-16T01:31:35.853Z,24.72
2018-12-16T01:34:08.450Z,22.53
2018-12-16T01:36:44.375Z,24.77
2018-12-16T01:39:15.891Z,25.70
2018-12-16T01:41:48.137Z,26.30
2018-12-16T01:44:19.686Z,24.20
2018-12-16T01:46:50.638Z,27.63
2018-12-16T01:49:20.315Z,25.80
2018-12-16T01:51:49.379Z,23.00
2018-12-16T01:54:18.041Z,31.17
2018-12-16T01:56:48.251Z,26.23
2018-12-16T01:59:18.299Z,34.88
2018-12-16T02:01:53.904Z,24.92
2018-12-16T02:04:24.871Z,24.20
2018-12-16T02:06:55.066Z,27.60
2018-12-16T02:09:27.128Z,25.80
2018-12-16T02:11:56.798Z,27.27
2018-12-16T02:14:25.673Z,23.30
2018-12-16T02:16:54.763Z,24.43
2018-12-16T02:19:23.143Z,24.72
2018-12-16T02:21:52.022Z,23.83
2018-12-16T02:24:24.796Z,32.70
2018-12-16T02:26:55.192Z,23.20
2018-12-16T02:29:25.945Z,22.30
2018-12-16T02:31:58.066Z,26.12
2018-12-16T02:34:30.590Z,28.38
2018-12-16T02:37:00.829Z,27.27
2018-12-16T02:39:29.797Z,28.97
2018-12-16T02:41:58.663Z,27.30
2018-12-16T02:44:29.286Z,27.57
2018-12-16T02:46:59.359Z,28.07
2018-12-16T02:49:29.681Z,28.93
2018-12-16T02:51:59.034Z,33.53
2018-12-16T02:54:30.925Z,27.30
2018-12-16T02:57:02.967Z,33.40
2018-12-16T02:59:32.980Z,23.27
2018-12-16T03:02:03.498Z,27.50
2018-12-16T03:04:33.770Z,27.60
2018-12-16T03:07:03.190Z,32.83
2018-12-16T03:09:33.269Z,28.23
2018-12-16T03:12:03.545Z,25.30
2018-12-16T03:14:34.580Z,25.80
2018-12-16T03:17:04.691Z,30.33
2018-12-16T03:19:33.875Z,25.10
2018-12-16T03:22:02.821Z,26.93
2018-12-16T03:24:31.864Z,30.67
2018-12-16T03:27:01.231Z,24.87
2018-12-16T03:29:29.648Z,29.15
2018-12-16T03:31:59.713Z,26.97
2018-12-16T03:34:30.068Z,30.63
2018-12-16T03:36:59.599Z,26.97
2018-12-16T03:39:29.298Z,33.23
2018-12-16T03:42:04.124Z,31.50
2018-12-16T03:44:34.056Z,28.30
2018-12-16T03:47:02.431Z,27.90
2018-12-16T03:49:30.837Z,27.27
2018-12-16T03:51:59.849Z,28.10
2018-12-16T03:54:29.370Z,28.10
2018-12-16T03:56:57.775Z,29.97
2018-12-16T03:59:27.610Z,28.98
2018-12-16T04:01:58.233Z,27.47
2018-12-16T04:04:29.231Z,25.30
2018-12-16T04:06:59.189Z,28.80
2018-12-16T04:09:29.503Z,28.00
2018-12-16T04:11:59.024Z,30.73
2018-12-16T04:14:28.905Z,25.48
2018-12-16T04:16:58.199Z,27.60
2018-12-16T04:19:27.199Z,28.27
2018-12-16T04:21:55.617Z,29.60
2018-12-16T04:24:24.411Z,31.00
2018-12-16T04:26:53.620Z,30.87
2018-12-16T04:29:22.617Z,24.45
2018-12-16T04:31:52.194Z,29.43
2018-12-16T04:34:22.375Z,28.30
2018-12-16T04:36:50.765Z,28.70
2018-12-16T04:39:19.403Z,30.97
2018-12-16T04:41:48.375Z,29.20
2018-12-16T04:44:17.579Z,29.50
2018-12-16T04:46:46.791Z,28.70
2018-12-16T04:49:16.159Z,26.13
2018-12-16T04:51:45.029Z,26.37
2018-12-16T04:54:15.757Z,23.38
2018-12-16T04:56:44.933Z,30.13
2018-12-16T04:59:13.463Z,32.20
2018-12-16T05:01:42.379Z,29.33
2018-12-16T05:04:13.107Z,30.55
2018-12-16T05:06:42.350Z,28.27
2018-12-16T05:09:11.361Z,31.82
2018-12-16T05:11:41.090Z,30.23
2018-12-16T05:14:11.615Z,30.02
2018-12-16T05:16:42.201Z,26.73
2018-12-16T05:19:10.866Z,29.82
2018-12-16T05:21:39.472Z,29.30
2018-12-16T05:24:08.552Z,30.77
2018-12-16T05:26:37.363Z,27.77
2018-12-16T05:29:06.939Z,30.50
2018-12-16T05:31:36.697Z,31.10
2018-12-16T05:34:05.075Z,32.20
2018-12-16T05:36:35.587Z,32.90
2018-12-16T05:39:06.759Z,29.85
2018-12-16T05:41:35.162Z,27.70
2018-12-16T05:44:03.824Z,25.60
2018-12-16T05:46:33.196Z,30.85
2018-12-16T05:49:01.614Z,32.60
2018-12-16T05:51:30.810Z,30.97
2018-12-16T05:54:00.098Z,33.70
2018-12-16T05:56:29.170Z,32.27
2018-12-16T05:58:58.325Z,31.53
2018-12-16T06:01:26.719Z,34.43
2018-12-16T06:03:57.607Z,32.53
2018-12-16T06:06:27.755Z,33.60
2018-12-16T06:08:56.193Z,31.93
2018-12-16T06:11:26.244Z,32.20
2018-12-16T06:13:54.649Z,35.45
2018-12-16T06:16:23.079Z,40.27
2018-12-16T06:18:52.837Z,37.43
2018-12-16T06:21:22.337Z,38.73
2018-12-16T06:23:55.492Z,41.92
2018-12-16T06:26:27.922Z,37.77
2018-12-16T06:28:57.735Z,36.00
2018-12-16T06:31:26.185Z,44.67
2018-12-16T06:33:54.555Z,40.20
2018-12-16T06:36:23.682Z,38.20
2018-12-16T06:38:54.795Z,39.30
2018-12-16T06:41:27.165Z,44.30
2018-12-16T06:44:01.525Z,43.35
2018-12-16T06:46:32.214Z,38.73
2018-12-16T06:49:06.392Z,42.50
2018-12-16T06:51:39.065Z,39.93
2018-12-16T06:54:07.447Z,41.73
2018-12-16T06:56:35.922Z,39.97
2018-12-16T06:59:04.318Z,42.48
2018-12-16T07:01:34.072Z,45.63
2018-12-16T07:04:02.471Z,44.90
2018-12-16T07:06:31.864Z,38.20
2018-12-16T07:09:00.227Z,43.90
2018-12-16T07:11:28.709Z,45.00
2018-12-16T07:13:57.262Z,42.93
2018-12-16T07:16:28.351Z,51.70
2018-12-16T07:18:56.827Z,40.67
2018-12-16T07:21:34.652Z,45.15
2018-12-16T07:24:09.367Z,52.97
2018-12-16T07:26:41.553Z,45.52
2018-12-16T07:29:14.073Z,53.07
2018-12-16T07:31:44.169Z,41.80
2018-12-16T07:34:12.657Z,46.67
2018-12-16T07:36:43.430Z,46.80
2018-12-16T07:39:11.873Z,45.30
2018-12-16T07:41:40.415Z,48.87
2018-12-16T07:44:08.888Z,46.18
2018-12-16T07:46:37.326Z,41.20
2018-12-16T07:49:05.826Z,45.97
2018-12-16T07:51:34.289Z,51.40
2018-12-16T07:54:05.172Z,49.95
2018-12-16T07:56:33.621Z,52.03
2018-12-16T07:59:02.238Z,45.47
2018-12-16T08:01:30.715Z,44.98
2018-12-16T08:04:00.101Z,46.57
2018-12-16T08:06:28.665Z,50.57
2018-12-16T08:08:57.161Z,49.17
2018-12-16T08:11:27.442Z,45.47
2018-12-16T08:13:56.667Z,46.23
2018-12-16T08:16:25.095Z,56.43
2018-12-16T08:18:53.573Z,45.35
2018-12-16T08:21:23.108Z,47.20
2018-12-16T08:23:51.818Z,43.90
2018-12-16T08:26:20.290Z,46.42
2018-12-16T08:28:48.803Z,44.27
2018-12-16T08:31:18.130Z,44.53
2018-12-16T08:33:46.552Z,42.37
2018-12-16T08:36:15.103Z,43.43
2018-12-16T08:38:43.537Z,44.57
2018-12-16T08:41:12.245Z,50.43
2018-12-16T08:43:40.671Z,50.83
2018-12-16T08:46:09.059Z,46.95
2018-12-16T08:48:37.559Z,51.27
2018-12-16T08:51:06.021Z,46.55
2018-12-16T08:53:34.355Z,56.07
2018-12-16T08:56:02.779Z,39.87
2018-12-16T08:58:31.132Z,48.20
2018-12-16T09:01:02.706Z,53.38
2018-12-16T09:03:31.239Z,45.03
2018-12-16T09:05:59.684Z,42.67
2018-12-16T09:08:28.264Z,47.73
2018-12-16T09:10:57.477Z,45.17
2018-12-16T09:13:25.958Z,45.17
2018-12-16T09:15:54.629Z,53.23
2018-12-16T09:18:23.020Z,46.13
2018-12-16T09:20:51.434Z,44.17
2018-12-16T09:23:20.420Z,40.20
2018-12-16T09:25:48.791Z,39.93
2018-12-16T09:28:17.164Z,41.63
2018-12-16T09:30:45.549Z,49.55
2018-12-16T09:33:13.952Z,47.00
2018-12-16T09:35:42.360Z,48.80
2018-12-16T09:38:10.789Z,49.63
2018-12-16T09:40:39.162Z,48.17
2018-12-16T09:43:07.550Z,47.50
2018-12-16T09:45:35.907Z,43.40
2018-12-16T09:48:04.358Z,50.10
2018-12-16T09:50:32.825Z,41.63
2018-12-16T09:53:01.255Z,46.87
2018-12-16T09:55:29.726Z,45.83
2018-12-16T09:57:58.103Z,52.43
2018-12-16T10:00:26.489Z,39.10
2018-12-16T10:02:54.842Z,46.75
2018-12-16T10:05:23.278Z,45.17
2018-12-16T10:07:51.738Z,52.85
2018-12-16T10:10:20.095Z,40.17
2018-12-16T10:12:48.522Z,40.40
2018-12-16T10:15:17.259Z,44.98
2018-12-16T10:17:45.698Z,46.15
2018-12-16T10:20:14.273Z,50.48
2018-12-16T10:22:42.636Z,48.63
2018-12-16T10:25:11.077Z,45.60
2018-12-16T10:27:39.604Z,44.15
2018-12-16T10:30:09.064Z,47.83
2018-12-16T10:32:37.435Z,42.17
2018-12-16T10:35:06.232Z,54.13
2018-12-16T10:37:34.641Z,47.60
2018-12-16T10:40:03.205Z,45.13
2018-12-16T10:42:31.719Z,53.43
2018-12-16T10:45:00.134Z,50.00
2018-12-16T10:47:28.570Z,45.97
2018-12-16T10:49:56.963Z,47.17
2018-12-16T10:52:25.345Z,42.95
2018-12-16T10:54:58.406Z,49.93
2018-12-16T10:57:24.245Z,46.48
2018-12-16T10:59:52.757Z,46.25
2018-12-16T11:02:21.127Z,54.60
2018-12-16T11:04:49.506Z,50.52
2018-12-16T11:07:17.871Z,48.30
2018-12-16T11:09:46.466Z,46.37
2018-12-16T11:12:15.394Z,51.90
2018-12-16T11:14:43.804Z,49.53
2018-12-16T11:17:12.604Z,40.13
2018-12-16T11:19:43.022Z,41.30
2018-12-16T11:22:13.211Z,46.27
2018-12-16T11:24:43.216Z,43.50
2018-12-16T11:27:11.822Z,48.83
2018-12-16T11:29:40.482Z,44.03
2018-12-16T11:32:08.936Z,45.10
2018-12-16T11:34:37.291Z,47.80
2018-12-16T11:37:05.698Z,46.67
2018-12-16T11:39:34.203Z,49.20
2018-12-16T11:42:02.751Z,45.30
2018-12-16T11:44:31.136Z,45.93
2018-12-16T11:46:59.561Z,52.38
2018-12-16T11:49:27.958Z,52.00
2018-12-16T11:51:56.398Z,47.80
2018-12-16T11:54:24.745Z,46.27
2018-12-16T11:56:53.165Z,46.57
2018-12-16T11:59:21.622Z,57.78
2018-12-16T12:01:49.954Z,46.20
2018-12-16T12:04:18.406Z,45.52
2018-12-16T12:06:46.827Z,46.23
2018-12-16T12:09:15.357Z,54.50
2018-12-16T12:11:43.847Z,45.53
2018-12-16T12:14:12.223Z,47.93
2018-12-16T12:16:40.764Z,47.53
2018-12-16T12:19:09.150Z,41.30
2018-12-16T12:21:37.998Z,46.10
2018-12-16T12:24:06.423Z,45.70
2018-12-16T12:26:34.829Z,48.40
2018-12-16T12:29:03.395Z,51.77
2018-12-16T12:31:31.887Z,55.80
2018-12-16T12:34:00.395Z,51.57
2018-12-16T12:36:29.777Z,41.63
2018-12-16T12:38:58.168Z,45.87
2018-12-16T12:41:26.665Z,51.28
2018-12-16T12:43:55.072Z,53.40
2018-12-16T12:46:25.093Z,50.67
2018-12-16T12:48:53.635Z,48.60
2018-12-16T12:51:22.042Z,54.73
2018-12-16T12:53:50.604Z,49.67
2018-12-16T12:56:18.992Z,55.17
2018-12-16T12:58:47.365Z,52.20
2018-12-16T13:01:15.766Z,55.10
2018-12-16T13:03:44.186Z,55.47
2018-12-16T13:06:17.021Z,53.27
2018-12-16T13:08:48.182Z,51.20
2018-12-16T13:11:18.362Z,49.05
2018-12-16T13:13:48.373Z,39.70
2018-12-16T13:16:18.554Z,46.50
2018-12-16T13:18:48.654Z,46.50
2018-12-16T13:21:18.564Z,46.90
2018-12-16T13:23:48.193Z,51.93
2018-12-16T13:26:18.518Z,43.00
2018-12-16T13:28:47.109Z,42.30
2018-12-16T13:31:15.611Z,45.35
2018-12-16T13:33:44.062Z,49.97
2018-12-16T13:36:12.546Z,52.70
2018-12-16T13:38:40.971Z,49.53
2018-12-16T13:41:09.431Z,49.77
2018-12-16T13:43:37.925Z,49.53
2018-12-16T13:46:06.328Z,58.20
2018-12-16T13:48:34.723Z,57.97
2018-12-16T13:51:03.161Z,46.60
2018-12-16T13:53:31.614Z,52.17
2018-12-16T13:56:02.151Z,53.30
2018-12-16T13:58:31.038Z,51.37
2018-12-16T14:00:59.495Z,60.17
2018-12-16T14:03:28.031Z,54.00
2018-12-16T14:05:56.845Z,55.63
2018-12-16T14:08:25.517Z,53.80
2018-12-16T14:10:53.956Z,49.83
2018-12-16T14:13:22.414Z,49.40
2018-12-16T14:15:52.457Z,47.90
2018-12-16T14:18:21.228Z,47.93
2018-12-16T14:20:49.694Z,54.88
2018-12-16T14:23:18.123Z,51.60
2018-12-16T14:25:48.205Z,52.40
2018-12-16T14:28:16.831Z,60.60
2018-12-16T14:30:46.488Z,56.90
2018-12-16T14:33:14.946Z,59.60
2018-12-16T14:35:44.921Z,57.50
2018-12-16T14:38:13.845Z,60.48
2018-12-16T14:40:42.971Z,57.17
2018-12-16T14:43:11.435Z,63.77
2018-12-16T14:45:39.914Z,55.67
2018-12-16T14:48:08.369Z,49.50
2018-12-16T14:50:36.756Z,65.97
2018-12-16T14:53:05.206Z,53.83
2018-12-16T14:55:33.623Z,59.93
2018-12-16T14:58:02.113Z,60.83
2018-12-16T15:00:30.601Z,55.57
2018-12-16T15:02:59.039Z,59.55
2018-12-16T15:05:35.137Z,58.63
2018-12-16T15:08:04.743Z,69.03
2018-12-16T15:10:33.152Z,68.97
2018-12-16T15:13:01.631Z,57.13
2018-12-16T15:15:30.022Z,71.83
2018-12-16T15:17:58.556Z,68.23
2018-12-16T15:20:27.426Z,61.17
2018-12-16T15:22:56.763Z,58.17
2018-12-16T15:25:25.291Z,54.43
2018-12-16T15:27:54.826Z,52.75
2018-12-16T15:30:23.649Z,56.73
2018-12-16T15:32:52.292Z,52.70
2018-12-16T15:35:21.659Z,44.73
2018-12-16T15:37:52.244Z,62.70
2018-12-16T15:40:21.949Z,53.10
2018-12-16T15:42:51.395Z,47.78
2018-12-16T15:45:19.969Z,50.67
2018-12-16T15:47:48.431Z,51.00
2018-12-16T15:50:16.995Z,55.85
2018-12-16T15:52:45.423Z,46.70
2018-12-16T15:55:13.922Z,56.40
2018-12-16T15:57:42.438Z,50.20
2018-12-16T16:00:11.619Z,57.00
2018-12-16T16:02:40.112Z,53.53
2018-12-16T16:05:09.121Z,62.10
2018-12-16T16:07:37.847Z,57.40
2018-12-16T16:10:08.060Z,56.43
2018-12-16T16:12:36.518Z,61.10
2018-12-16T16:15:05.453Z,59.37
2018-12-16T16:17:33.952Z,57.37
2018-12-16T16:20:02.739Z,56.80
2018-12-16T16:22:31.558Z,62.20
2018-12-16T16:24:59.994Z,54.03
2018-12-16T16:27:29.060Z,49.23
2018-12-16T16:29:57.583Z,53.85
2018-12-16T16:32:26.200Z,57.73
2018-12-16T16:34:54.768Z,60.90
2018-12-16T16:37:23.263Z,59.17
2018-12-16T16:39:51.754Z,63.85
2018-12-16T16:42:20.599Z,63.95
2018-12-16T16:44:49.275Z,63.37
2018-12-16T16:47:18.806Z,59.45
2018-12-16T16:49:53.897Z,67.80
2018-12-16T16:52:22.652Z,67.27
2018-12-16T16:54:52.314Z,63.92
2018-12-16T16:57:20.886Z,70.00
2018-12-16T16:59:49.947Z,72.20
2018-12-16T17:02:18.812Z,71.33
2018-12-16T17:04:47.347Z,61.13
2018-12-16T17:07:16.016Z,58.43
2018-12-16T17:09:44.446Z,54.93
2018-12-16T17:12:13.102Z,65.80
2018-12-16T17:14:41.702Z,63.83
2018-12-16T17:17:10.547Z,60.60
2018-12-16T17:19:39.017Z,59.03
2018-12-16T17:22:07.791Z,65.97
2018-12-16T17:24:37.217Z,72.17
2018-12-16T17:27:05.763Z,60.83
2018-12-16T17:29:34.351Z,84.10
2018-12-16T17:32:03.210Z,61.07
2018-12-16T17:34:31.692Z,68.15
2018-12-16T17:37:00.166Z,63.77
2018-12-16T17:39:28.674Z,62.10
2018-12-16T17:41:57.309Z,61.50
2018-12-16T17:44:25.754Z,76.90
2018-12-16T17:46:54.306Z,73.03
2018-12-16T17:49:23.410Z,67.75
2018-12-16T17:51:51.891Z,63.73
2018-12-16T17:54:20.331Z,60.53
2018-12-16T17:56:48.755Z,61.63
2018-12-16T17:59:17.980Z,75.23
2018-12-16T18:01:47.859Z,69.67
2018-12-16T18:04:16.425Z,74.20
2018-12-16T18:06:45.054Z,75.03
2018-12-16T18:09:13.623Z,77.77
2018-12-16T18:11:42.093Z,77.47
2018-12-16T18:14:10.675Z,70.00
2018-12-16T18:16:39.199Z,63.05
2018-12-16T18:19:08.432Z,71.10
2018-12-16T18:21:37.246Z,76.55
2018-12-16T18:24:05.625Z,58.28
2018-12-16T18:26:34.534Z,68.13
2018-12-16T18:29:04.469Z,74.47
2018-12-16T18:31:34.506Z,81.50
2018-12-16T18:34:03.179Z,75.20
2018-12-16T18:36:31.619Z,68.57
2018-12-16T18:39:00.039Z,71.43
2018-12-16T18:41:28.907Z,71.82
2018-12-16T18:43:57.730Z,75.57
2018-12-16T18:46:26.300Z,70.83
2018-12-16T18:48:54.794Z,61.88
2018-12-16T18:51:23.338Z,75.08
2018-12-16T18:53:51.819Z,66.93
2018-12-16T18:56:20.396Z,83.60
2018-12-16T18:58:49.799Z,83.37
2018-12-16T19:01:18.288Z,66.47
2018-12-16T19:03:46.785Z,75.60
2018-12-16T19:06:15.430Z,73.73
2018-12-16T19:08:43.859Z,63.73
2018-12-16T19:11:13.827Z,74.77
2018-12-16T19:13:43.319Z,76.87
2018-12-16T19:16:11.842Z,72.17
2018-12-16T19:18:40.560Z,82.27
2018-12-16T19:21:09.990Z,88.92
2018-12-16T19:23:38.614Z,76.83
2018-12-16T19:26:07.026Z,97.47
2018-12-16T19:28:35.914Z,72.60
2018-12-16T19:31:04.435Z,82.00
2018-12-16T19:33:33.551Z,80.77
2018-12-16T19:36:02.528Z,90.27
2018-12-16T19:38:31.622Z,91.23
2018-12-16T19:41:00.559Z,89.47
2018-12-16T19:43:29.428Z,108.10
2018-12-16T19:45:58.780Z,100.02
2018-12-16T19:48:28.165Z,106.85
2018-12-16T19:50:57.156Z,94.37
2018-12-16T19:53:25.630Z,94.13
2018-12-16T19:55:54.192Z,89.95
2018-12-16T19:58:22.757Z,81.43
2018-12-16T20:00:51.541Z,109.03
2018-12-16T20:03:20.060Z,103.30
2018-12-16T20:05:53.730Z,89.20
2018-12-16T20:08:22.370Z,164.67
2018-12-16T20:10:50.847Z,163.07
2018-12-16T20:13:19.324Z,99.32
2018-12-16T20:15:47.984Z,89.40
2018-12-16T20:18:16.382Z,119.77
2018-12-16T20:20:44.852Z,98.00
2018-12-16T20:23:13.275Z,127.43
2018-12-16T20:25:43.191Z,131.80
2018-12-16T20:28:11.818Z,91.02
2018-12-16T20:30:40.361Z,106.77
2018-12-16T20:33:09.112Z,145.77
2018-12-16T20:35:37.704Z,107.90
2018-12-16T20:38:06.333Z,100.17
2018-12-16T20:40:35.025Z,98.55
2018-12-16T20:43:03.737Z,102.70
2018-12-16T20:45:32.188Z,99.30
2018-12-16T20:48:00.711Z,101.45
2018-12-16T20:50:29.200Z,104.03
2018-12-16T20:52:57.714Z,105.80
2018-12-16T20:55:27.217Z,132.80
2018-12-16T20:57:55.674Z,105.70
2018-12-16T21:00:24.275Z,123.47
2018-12-16T21:02:52.830Z,95.97
2018-12-16T21:05:21.410Z,88.77
2018-12-16T21:07:49.946Z,88.85
2018-12-16T21:10:18.395Z,99.37
2018-12-16T21:12:51.976Z,104.38
2018-12-16T21:15:26.021Z,125.53
2018-12-16T21:17:59.784Z,92.57
2018-12-16T21:20:28.226Z,114.63
2018-12-16T21:22:57.637Z,103.20
2018-12-16T21:25:26.097Z,104.70
2018-12-16T21:27:55.067Z,93.62
2018-12-16T21:30:23.501Z,137.07
2018-12-16T21:32:51.978Z,104.47
2018-12-16T21:35:20.429Z,95.77
2018-12-16T21:37:49.467Z,167.68
2018-12-16T21:40:17.952Z,108.10
2018-12-16T21:42:46.341Z,137.67
2018-12-16T21:45:14.742Z,97.13
2018-12-16T21:47:43.193Z,104.32
2018-12-16T21:50:12.634Z,136.22
2018-12-16T21:52:41.630Z,128.73
2018-12-16T21:55:10.235Z,157.72
2018-12-16T21:57:38.963Z,175.73
2018-12-16T22:00:09.855Z,141.63
2018-12-16T22:02:38.511Z,169.40
2018-12-16T22:05:10.463Z,145.07
2018-12-16T22:07:39.692Z,116.23
2018-12-16T22:10:08.326Z,212.73
2018-12-16T22:12:37.244Z,100.65
2018-12-16T22:15:06.275Z,127.07
2018-12-16T22:17:34.688Z,107.50
2018-12-16T22:20:03.055Z,129.37
2018-12-16T22:22:31.653Z,111.87
2018-12-16T22:25:00.063Z,138.93
2018-12-16T22:27:28.673Z,145.43
2018-12-16T22:29:57.072Z,185.23
2018-12-16T22:32:25.894Z,108.17
2018-12-16T22:34:54.542Z,108.63
2018-12-16T22:37:23.248Z,113.10
2018-12-16T22:39:52.222Z,95.85
2018-12-16T22:42:21.019Z,99.23
2018-12-16T22:44:50.088Z,115.90
2018-12-16T22:47:19.372Z,90.53
2018-12-16T22:49:48.202Z,113.90
2018-12-16T22:52:17.503Z,129.00
2018-12-16T22:54:46.208Z,101.37
2018-12-16T22:57:15.515Z,81.17
2018-12-16T22:59:44.065Z,90.37
2018-12-16T23:02:12.531Z,103.13
2018-12-16T23:04:41.169Z,104.30
2018-12-16T23:07:09.886Z,105.12
2018-12-16T23:09:38.448Z,114.95
2018-12-16T23:12:06.884Z,118.87
2018-12-16T23:14:35.546Z,101.30
2018-12-16T23:17:04.867Z,111.23
2018-12-16T23:19:34.185Z,105.17
2018-12-16T23:22:02.729Z,92.45
2018-12-16T23:24:31.503Z,101.70
2018-12-16T23:26:59.919Z,162.73
2018-12-16T23:29:28.373Z,134.60
2018-12-16T23:31:56.893Z,134.33
2018-12-16T23:34:26.087Z,126.70
2018-12-16T23:36:54.490Z,111.28
2018-12-16T23:39:23.670Z,114.12
2018-12-16T23:41:52.075Z,118.77
2018-12-16T23:44:20.555Z,91.87
2018-12-16T23:46:49.078Z,113.07
2018-12-16T23:49:17.432Z,101.13
2018-12-16T23:51:45.835Z,146.10
2018-12-16T23:54:14.267Z,174.10
2018-12-16T23:56:42.621Z,181.70
2018-12-16T23:59:10.986Z,113.03
